sensor_id;sensor_type;location;lat;lon;timestamp;P1;durP1;ratioP1;P2;durP2;ratioP2
11531;SDS011;5822;51.000;5.874;2023-04-15T00:00:29;17.67;;;16.67;;
11531;SDS011;5822;51.000;5.874;2023-04-15T00:02:54;17.63;;;16.63;;
11531;SDS011;5822;51.000;5.874;2023-04-15T00:05:20;17.40;;;16.40;;
11531;SDS011;5822;51.000;5.874;2023-04-15T00:07:46;17.73;;;16.83;;
11531;SDS011;5822;51.000;5.874;2023-04-15T00:10:12;18.00;;;17.10;;
11531;SDS011;5822;51.000;5.874;2023-04-15T00:12:38;16.70;;;15.80;;
11531;SDS011;5822;51.000;5.874;2023-04-15T00:15:05;16.27;;;15.38;;
11531;SDS011;5822;51.000;5.874;2023-04-15T00:17:33;16.90;;;15.90;;
11531;SDS011;5822;51.000;5.874;2023-04-15T00:19:59;17.92;;;16.92;;
11531;SDS011;5822;51.000;5.874;2023-04-15T00:22:25;18.60;;;17.60;;
11531;SDS011;5822;51.000;5.874;2023-04-15T00:24:52;17.50;;;16.50;;
11531;SDS011;5822;51.000;5.874;2023-04-15T00:27:18;17.03;;;16.13;;
11531;SDS011;5822;51.000;5.874;2023-04-15T00:29:44;16.80;;;15.90;;
11531;SDS011;5822;51.000;5.874;2023-04-15T00:32:10;16.30;;;15.40;;
11531;SDS011;5822;51.000;5.874;2023-04-15T00:34:35;16.63;;;15.73;;
11531;SDS011;5822;51.000;5.874;2023-04-15T00:37:01;17.25;;;16.23;;
11531;SDS011;5822;51.000;5.874;2023-04-15T00:39:27;17.63;;;16.52;;
11531;SDS011;5822;51.000;5.874;2023-04-15T00:41:52;16.80;;;15.82;;
11531;SDS011;5822;51.000;5.874;2023-04-15T00:44:19;17.00;;;16.10;;
11531;SDS011;5822;51.000;5.874;2023-04-15T00:46:45;17.30;;;16.38;;
11531;SDS011;5822;51.000;5.874;2023-04-15T00:49:12;17.00;;;16.10;;
11531;SDS011;5822;51.000;5.874;2023-04-15T00:51:38;16.70;;;15.80;;
11531;SDS011;5822;51.000;5.874;2023-04-15T00:54:04;16.50;;;15.60;;
11531;SDS011;5822;51.000;5.874;2023-04-15T00:56:32;16.33;;;15.43;;
11531;SDS011;5822;51.000;5.874;2023-04-15T00:59:00;16.27;;;15.40;;
11531;SDS011;5822;51.000;5.874;2023-04-15T01:01:26;15.83;;;15.03;;
11531;SDS011;5822;51.000;5.874;2023-04-15T01:03:53;15.75;;;14.95;;
11531;SDS011;5822;51.000;5.874;2023-04-15T01:06:20;16.67;;;15.77;;
11531;SDS011;5822;51.000;5.874;2023-04-15T01:08:46;16.50;;;15.60;;
11531;SDS011;5822;51.000;5.874;2023-04-15T01:11:12;16.17;;;15.37;;
11531;SDS011;5822;51.000;5.874;2023-04-15T01:13:38;15.50;;;14.70;;
11531;SDS011;5822;51.000;5.874;2023-04-15T01:16:04;16.40;;;15.50;;
11531;SDS011;5822;51.000;5.874;2023-04-15T01:18:31;16.10;;;15.20;;
11531;SDS011;5822;51.000;5.874;2023-04-15T01:20:57;16.35;;;15.45;;
11531;SDS011;5822;51.000;5.874;2023-04-15T01:23:26;15.88;;;15.07;;
11531;SDS011;5822;51.000;5.874;2023-04-15T01:25:52;16.70;;;15.80;;
11531;SDS011;5822;51.000;5.874;2023-04-15T01:28:18;16.50;;;15.60;;
11531;SDS011;5822;51.000;5.874;2023-04-15T01:30:44;16.58;;;15.68;;
11531;SDS011;5822;51.000;5.874;2023-04-15T01:33:10;16.63;;;15.73;;
11531;SDS011;5822;51.000;5.874;2023-04-15T01:35:36;17.30;;;16.30;;
11531;SDS011;5822;51.000;5.874;2023-04-15T01:38:04;16.75;;;15.85;;
11531;SDS011;5822;51.000;5.874;2023-04-15T01:40:31;17.30;;;16.30;;
11531;SDS011;5822;51.000;5.874;2023-04-15T01:42:57;17.42;;;16.42;;
11531;SDS011;5822;51.000;5.874;2023-04-15T01:45:23;17.73;;;16.73;;
11531;SDS011;5822;51.000;5.874;2023-04-15T01:47:49;17.60;;;16.60;;
11531;SDS011;5822;51.000;5.874;2023-04-15T01:50:15;16.97;;;16.07;;
11531;SDS011;5822;51.000;5.874;2023-04-15T01:52:40;16.97;;;16.07;;
11531;SDS011;5822;51.000;5.874;2023-04-15T01:55:07;17.65;;;16.65;;
11531;SDS011;5822;51.000;5.874;2023-04-15T01:57:33;17.07;;;16.17;;
11531;SDS011;5822;51.000;5.874;2023-04-15T01:59:59;16.73;;;15.83;;
11531;SDS011;5822;51.000;5.874;2023-04-15T02:02:25;17.15;;;16.15;;
11531;SDS011;5822;51.000;5.874;2023-04-15T02:04:50;17.50;;;16.50;;
11531;SDS011;5822;51.000;5.874;2023-04-15T02:07:17;17.02;;;16.10;;
11531;SDS011;5822;51.000;5.874;2023-04-15T02:09:43;17.50;;;16.50;;
11531;SDS011;5822;51.000;5.874;2023-04-15T02:12:10;17.45;;;16.45;;
11531;SDS011;5822;51.000;5.874;2023-04-15T02:14:35;16.83;;;15.93;;
11531;SDS011;5822;51.000;5.874;2023-04-15T02:17:01;16.60;;;15.70;;
11531;SDS011;5822;51.000;5.874;2023-04-15T02:19:31;16.42;;;15.52;;
11531;SDS011;5822;51.000;5.874;2023-04-15T02:21:57;16.55;;;15.65;;
11531;SDS011;5822;51.000;5.874;2023-04-15T02:24:25;16.50;;;15.60;;
11531;SDS011;5822;51.000;5.874;2023-04-15T02:26:51;16.67;;;15.77;;
11531;SDS011;5822;51.000;5.874;2023-04-15T02:29:17;16.90;;;16.00;;
11531;SDS011;5822;51.000;5.874;2023-04-15T02:31:43;16.80;;;15.90;;
11531;SDS011;5822;51.000;5.874;2023-04-15T02:34:09;16.73;;;15.82;;
11531;SDS011;5822;51.000;5.874;2023-04-15T02:36:35;16.77;;;15.88;;
11531;SDS011;5822;51.000;5.874;2023-04-15T02:39:01;16.67;;;15.77;;
11531;SDS011;5822;51.000;5.874;2023-04-15T02:41:28;16.60;;;15.70;;
11531;SDS011;5822;51.000;5.874;2023-04-15T02:43:54;16.45;;;15.55;;
11531;SDS011;5822;51.000;5.874;2023-04-15T02:46:21;16.80;;;15.90;;
11531;SDS011;5822;51.000;5.874;2023-04-15T02:48:47;16.60;;;15.70;;
11531;SDS011;5822;51.000;5.874;2023-04-15T02:51:13;17.30;;;16.38;;
11531;SDS011;5822;51.000;5.874;2023-04-15T02:53:40;17.73;;;16.73;;
11531;SDS011;5822;51.000;5.874;2023-04-15T02:56:06;17.98;;;16.98;;
11531;SDS011;5822;51.000;5.874;2023-04-15T02:58:33;17.90;;;16.90;;
11531;SDS011;5822;51.000;5.874;2023-04-15T03:00:59;17.95;;;16.95;;
11531;SDS011;5822;51.000;5.874;2023-04-15T03:03:25;17.38;;;16.48;;
11531;SDS011;5822;51.000;5.874;2023-04-15T03:05:52;17.40;;;16.40;;
11531;SDS011;5822;51.000;5.874;2023-04-15T03:08:18;17.77;;;16.77;;
11531;SDS011;5822;51.000;5.874;2023-04-15T03:10:45;16.80;;;15.90;;
11531;SDS011;5822;51.000;5.874;2023-04-15T03:13:11;17.02;;;16.13;;
11531;SDS011;5822;51.000;5.874;2023-04-15T03:15:37;16.65;;;15.75;;
11531;SDS011;5822;51.000;5.874;2023-04-15T03:18:02;17.08;;;16.08;;
11531;SDS011;5822;51.000;5.874;2023-04-15T03:20:28;16.92;;;16.02;;
11531;SDS011;5822;51.000;5.874;2023-04-15T03:22:54;16.27;;;15.38;;
11531;SDS011;5822;51.000;5.874;2023-04-15T03:25:19;16.45;;;15.55;;
11531;SDS011;5822;51.000;5.874;2023-04-15T03:27:45;16.45;;;15.55;;
11531;SDS011;5822;51.000;5.874;2023-04-15T03:30:11;16.70;;;15.80;;
11531;SDS011;5822;51.000;5.874;2023-04-15T03:32:37;16.50;;;15.60;;
11531;SDS011;5822;51.000;5.874;2023-04-15T03:35:03;16.55;;;15.65;;
11531;SDS011;5822;51.000;5.874;2023-04-15T03:37:29;16.63;;;15.73;;
11531;SDS011;5822;51.000;5.874;2023-04-15T03:39:55;17.27;;;16.27;;
11531;SDS011;5822;51.000;5.874;2023-04-15T03:42:20;17.00;;;16.10;;
11531;SDS011;5822;51.000;5.874;2023-04-15T03:44:46;17.00;;;16.10;;
11531;SDS011;5822;51.000;5.874;2023-04-15T03:47:11;16.88;;;15.98;;
11531;SDS011;5822;51.000;5.874;2023-04-15T03:49:37;16.63;;;15.73;;
11531;SDS011;5822;51.000;5.874;2023-04-15T03:52:03;16.90;;;16.00;;
11531;SDS011;5822;51.000;5.874;2023-04-15T03:54:28;16.60;;;15.70;;
11531;SDS011;5822;51.000;5.874;2023-04-15T03:56:54;17.00;;;16.10;;
11531;SDS011;5822;51.000;5.874;2023-04-15T03:59:20;17.30;;;16.30;;
11531;SDS011;5822;51.000;5.874;2023-04-15T04:01:46;17.30;;;16.30;;
11531;SDS011;5822;51.000;5.874;2023-04-15T04:04:12;17.13;;;16.13;;
11531;SDS011;5822;51.000;5.874;2023-04-15T04:06:38;16.63;;;15.73;;
11531;SDS011;5822;51.000;5.874;2023-04-15T04:09:03;17.20;;;16.20;;
11531;SDS011;5822;51.000;5.874;2023-04-15T04:11:29;16.90;;;16.00;;
11531;SDS011;5822;51.000;5.874;2023-04-15T04:13:55;16.98;;;16.00;;
11531;SDS011;5822;51.000;5.874;2023-04-15T04:16:21;17.00;;;16.10;;
11531;SDS011;5822;51.000;5.874;2023-04-15T04:18:47;17.15;;;16.25;;
11531;SDS011;5822;51.000;5.874;2023-04-15T04:21:12;17.20;;;16.20;;
11531;SDS011;5822;51.000;5.874;2023-04-15T04:23:38;17.10;;;16.10;;
11531;SDS011;5822;51.000;5.874;2023-04-15T04:26:04;17.92;;;16.92;;
11531;SDS011;5822;51.000;5.874;2023-04-15T04:28:30;17.05;;;16.05;;
11531;SDS011;5822;51.000;5.874;2023-04-15T04:30:55;16.77;;;15.87;;
11531;SDS011;5822;51.000;5.874;2023-04-15T04:33:21;16.60;;;15.70;;
11531;SDS011;5822;51.000;5.874;2023-04-15T04:35:47;17.20;;;16.30;;
11531;SDS011;5822;51.000;5.874;2023-04-15T04:38:12;17.20;;;16.30;;
11531;SDS011;5822;51.000;5.874;2023-04-15T04:40:38;17.00;;;16.03;;
11531;SDS011;5822;51.000;5.874;2023-04-15T04:43:04;17.30;;;16.40;;
11531;SDS011;5822;51.000;5.874;2023-04-15T04:45:29;17.20;;;16.20;;
11531;SDS011;5822;51.000;5.874;2023-04-15T04:47:55;17.60;;;16.60;;
11531;SDS011;5822;51.000;5.874;2023-04-15T04:50:20;18.00;;;17.00;;
11531;SDS011;5822;51.000;5.874;2023-04-15T04:52:46;18.27;;;17.20;;
11531;SDS011;5822;51.000;5.874;2023-04-15T04:55:12;17.77;;;16.77;;
11531;SDS011;5822;51.000;5.874;2023-04-15T04:57:37;18.08;;;17.08;;
11531;SDS011;5822;51.000;5.874;2023-04-15T05:00:06;17.30;;;16.35;;
11531;SDS011;5822;51.000;5.874;2023-04-15T05:02:33;17.33;;;16.33;;
11531;SDS011;5822;51.000;5.874;2023-04-15T05:04:59;17.20;;;16.20;;
11531;SDS011;5822;51.000;5.874;2023-04-15T05:07:25;16.65;;;15.73;;
11531;SDS011;5822;51.000;5.874;2023-04-15T05:09:51;17.23;;;16.23;;
11531;SDS011;5822;51.000;5.874;2023-04-15T05:12:17;17.33;;;16.23;;
11531;SDS011;5822;51.000;5.874;2023-04-15T05:14:42;16.70;;;15.70;;
11531;SDS011;5822;51.000;5.874;2023-04-15T05:17:08;16.88;;;15.98;;
11531;SDS011;5822;51.000;5.874;2023-04-15T05:19:35;16.77;;;15.88;;
11531;SDS011;5822;51.000;5.874;2023-04-15T05:22:01;16.83;;;15.82;;
11531;SDS011;5822;51.000;5.874;2023-04-15T05:24:26;16.73;;;15.82;;
11531;SDS011;5822;51.000;5.874;2023-04-15T05:26:52;17.20;;;16.20;;
11531;SDS011;5822;51.000;5.874;2023-04-15T05:29:17;17.33;;;16.33;;
11531;SDS011;5822;51.000;5.874;2023-04-15T05:31:43;16.90;;;16.00;;
11531;SDS011;5822;51.000;5.874;2023-04-15T05:34:09;17.30;;;16.40;;
11531;SDS011;5822;51.000;5.874;2023-04-15T05:36:36;17.63;;;16.63;;
11531;SDS011;5822;51.000;5.874;2023-04-15T05:39:02;17.48;;;16.52;;
11531;SDS011;5822;51.000;5.874;2023-04-15T05:41:28;17.60;;;16.60;;
11531;SDS011;5822;51.000;5.874;2023-04-15T05:43:53;16.75;;;15.85;;
11531;SDS011;5822;51.000;5.874;2023-04-15T05:46:19;17.10;;;16.10;;
11531;SDS011;5822;51.000;5.874;2023-04-15T05:48:45;16.85;;;15.90;;
11531;SDS011;5822;51.000;5.874;2023-04-15T05:51:11;17.20;;;16.20;;
11531;SDS011;5822;51.000;5.874;2023-04-15T05:53:36;16.85;;;15.90;;
11531;SDS011;5822;51.000;5.874;2023-04-15T05:56:02;18.00;;;16.90;;
11531;SDS011;5822;51.000;5.874;2023-04-15T05:58:28;17.70;;;16.70;;
11531;SDS011;5822;51.000;5.874;2023-04-15T06:00:54;17.50;;;16.50;;
11531;SDS011;5822;51.000;5.874;2023-04-15T06:03:20;17.52;;;16.52;;
11531;SDS011;5822;51.000;5.874;2023-04-15T06:05:46;17.13;;;16.13;;
11531;SDS011;5822;51.000;5.874;2023-04-15T06:08:12;17.73;;;16.73;;
11531;SDS011;5822;51.000;5.874;2023-04-15T06:10:38;19.70;;;18.63;;
11531;SDS011;5822;51.000;5.874;2023-04-15T06:13:03;19.90;;;18.83;;
11531;SDS011;5822;51.000;5.874;2023-04-15T06:15:29;26.20;;;25.00;;
11531;SDS011;5822;51.000;5.874;2023-04-15T06:17:55;29.05;;;27.75;;
11531;SDS011;5822;51.000;5.874;2023-04-15T06:20:21;32.90;;;31.43;;
11531;SDS011;5822;51.000;5.874;2023-04-15T06:22:47;35.90;;;34.30;;
11531;SDS011;5822;51.000;5.874;2023-04-15T06:25:13;36.70;;;35.10;;
11531;SDS011;5822;51.000;5.874;2023-04-15T06:27:39;34.90;;;33.37;;
11531;SDS011;5822;51.000;5.874;2023-04-15T06:30:05;35.17;;;33.57;;
11531;SDS011;5822;51.000;5.874;2023-04-15T06:32:31;35.22;;;33.65;;
11531;SDS011;5822;51.000;5.874;2023-04-15T06:34:57;36.57;;;34.97;;
11531;SDS011;5822;51.000;5.874;2023-04-15T06:37:23;34.90;;;33.30;;
11531;SDS011;5822;51.000;5.874;2023-04-15T06:39:48;34.30;;;32.80;;
11531;SDS011;5822;51.000;5.874;2023-04-15T06:42:14;26.43;;;25.13;;
11531;SDS011;5822;51.000;5.874;2023-04-15T06:44:40;27.43;;;26.13;;
11531;SDS011;5822;51.000;5.874;2023-04-15T06:47:06;27.80;;;26.50;;
11531;SDS011;5822;51.000;5.874;2023-04-15T06:49:33;25.63;;;24.42;;
11531;SDS011;5822;51.000;5.874;2023-04-15T06:51:59;28.15;;;26.80;;
11531;SDS011;5822;51.000;5.874;2023-04-15T06:54:25;24.77;;;23.57;;
11531;SDS011;5822;51.000;5.874;2023-04-15T06:56:50;24.17;;;23.03;;
11531;SDS011;5822;51.000;5.874;2023-04-15T06:59:16;27.65;;;26.35;;
11531;SDS011;5822;51.000;5.874;2023-04-15T07:01:42;33.75;;;32.25;;
11531;SDS011;5822;51.000;5.874;2023-04-15T07:04:07;36.13;;;34.53;;
11531;SDS011;5822;51.000;5.874;2023-04-15T07:06:33;37.78;;;36.00;;
11531;SDS011;5822;51.000;5.874;2023-04-15T07:08:59;38.67;;;36.97;;
11531;SDS011;5822;51.000;5.874;2023-04-15T07:11:25;38.80;;;37.10;;
11531;SDS011;5822;51.000;5.874;2023-04-15T07:13:51;40.05;;;38.25;;
11531;SDS011;5822;51.000;5.874;2023-04-15T07:16:17;38.80;;;37.00;;
11531;SDS011;5822;51.000;5.874;2023-04-15T07:18:43;37.08;;;35.38;;
11531;SDS011;5822;51.000;5.874;2023-04-15T07:21:08;39.30;;;37.50;;
11531;SDS011;5822;51.000;5.874;2023-04-15T07:23:34;37.65;;;35.95;;
11531;SDS011;5822;51.000;5.874;2023-04-15T07:26:00;29.20;;;27.77;;
11531;SDS011;5822;51.000;5.874;2023-04-15T07:28:26;29.50;;;28.10;;
11531;SDS011;5822;51.000;5.874;2023-04-15T07:30:51;25.20;;;23.90;;
11531;SDS011;5822;51.000;5.874;2023-04-15T07:33:17;25.37;;;24.07;;
11531;SDS011;5822;51.000;5.874;2023-04-15T07:35:43;25.23;;;24.03;;
11531;SDS011;5822;51.000;5.874;2023-04-15T07:38:09;31.65;;;30.15;;
11531;SDS011;5822;51.000;5.874;2023-04-15T07:40:36;31.17;;;29.77;;
11531;SDS011;5822;51.000;5.874;2023-04-15T07:43:03;29.33;;;27.95;;
11531;SDS011;5822;51.000;5.874;2023-04-15T07:45:29;29.63;;;28.23;;
11531;SDS011;5822;51.000;5.874;2023-04-15T07:47:55;22.67;;;21.58;;
11531;SDS011;5822;51.000;5.874;2023-04-15T07:50:21;20.95;;;19.85;;
11531;SDS011;5822;51.000;5.874;2023-04-15T07:52:47;20.88;;;19.83;;
11531;SDS011;5822;51.000;5.874;2023-04-15T07:55:14;20.67;;;19.67;;
11531;SDS011;5822;51.000;5.874;2023-04-15T07:57:43;21.83;;;20.73;;
11531;SDS011;5822;51.000;5.874;2023-04-15T08:00:09;25.95;;;24.75;;
11531;SDS011;5822;51.000;5.874;2023-04-15T08:02:35;26.30;;;25.00;;
11531;SDS011;5822;51.000;5.874;2023-04-15T08:05:01;27.02;;;25.73;;
11531;SDS011;5822;51.000;5.874;2023-04-15T08:07:28;26.80;;;25.50;;
11531;SDS011;5822;51.000;5.874;2023-04-15T08:09:54;26.33;;;25.03;;
11531;SDS011;5822;51.000;5.874;2023-04-15T08:12:20;27.35;;;25.98;;
11531;SDS011;5822;51.000;5.874;2023-04-15T08:14:46;26.27;;;24.88;;
11531;SDS011;5822;51.000;5.874;2023-04-15T08:17:12;25.73;;;24.33;;
11531;SDS011;5822;51.000;5.874;2023-04-15T08:19:37;25.07;;;23.67;;
11531;SDS011;5822;51.000;5.874;2023-04-15T08:22:04;23.95;;;22.60;;
11531;SDS011;5822;51.000;5.874;2023-04-15T08:24:30;21.73;;;20.63;;
11531;SDS011;5822;51.000;5.874;2023-04-15T08:26:55;21.80;;;20.60;;
11531;SDS011;5822;51.000;5.874;2023-04-15T08:29:21;23.80;;;22.40;;
11531;SDS011;5822;51.000;5.874;2023-04-15T08:31:47;22.23;;;21.02;;
11531;SDS011;5822;51.000;5.874;2023-04-15T08:34:13;21.10;;;20.00;;
11531;SDS011;5822;51.000;5.874;2023-04-15T08:36:39;21.25;;;20.15;;
11531;SDS011;5822;51.000;5.874;2023-04-15T08:39:05;21.00;;;19.90;;
11531;SDS011;5822;51.000;5.874;2023-04-15T08:41:38;20.42;;;19.40;;
11531;SDS011;5822;51.000;5.874;2023-04-15T08:44:09;22.25;;;21.05;;
11531;SDS011;5822;51.000;5.874;2023-04-15T08:46:35;22.02;;;20.92;;
11531;SDS011;5822;51.000;5.874;2023-04-15T08:49:04;20.83;;;19.83;;
11531;SDS011;5822;51.000;5.874;2023-04-15T08:51:33;21.27;;;20.17;;
11531;SDS011;5822;51.000;5.874;2023-04-15T08:53:59;20.40;;;19.40;;
11531;SDS011;5822;51.000;5.874;2023-04-15T08:56:26;20.20;;;19.20;;
11531;SDS011;5822;51.000;5.874;2023-04-15T08:58:54;18.90;;;17.90;;
11531;SDS011;5822;51.000;5.874;2023-04-15T09:01:21;18.92;;;17.92;;
11531;SDS011;5822;51.000;5.874;2023-04-15T09:03:47;19.50;;;18.50;;
11531;SDS011;5822;51.000;5.874;2023-04-15T09:06:15;19.30;;;18.30;;
11531;SDS011;5822;51.000;5.874;2023-04-15T09:08:41;19.47;;;18.47;;
11531;SDS011;5822;51.000;5.874;2023-04-15T09:11:07;19.93;;;18.90;;
11531;SDS011;5822;51.000;5.874;2023-04-15T09:13:33;19.40;;;18.40;;
11531;SDS011;5822;51.000;5.874;2023-04-15T09:16:01;19.60;;;18.60;;
11531;SDS011;5822;51.000;5.874;2023-04-15T09:18:34;19.80;;;18.80;;
11531;SDS011;5822;51.000;5.874;2023-04-15T09:21:08;19.70;;;18.70;;
11531;SDS011;5822;51.000;5.874;2023-04-15T09:23:39;19.40;;;18.40;;
11531;SDS011;5822;51.000;5.874;2023-04-15T09:26:35;19.70;;;18.70;;
11531;SDS011;5822;51.000;5.874;2023-04-15T09:29:05;20.08;;;19.08;;
11531;SDS011;5822;51.000;5.874;2023-04-15T09:31:31;21.88;;;20.67;;
11531;SDS011;5822;51.000;5.874;2023-04-15T09:33:57;20.40;;;19.30;;
11531;SDS011;5822;51.000;5.874;2023-04-15T09:36:23;20.40;;;19.30;;
11531;SDS011;5822;51.000;5.874;2023-04-15T09:38:59;19.40;;;18.40;;
11531;SDS011;5822;51.000;5.874;2023-04-15T09:41:25;18.63;;;17.73;;
11531;SDS011;5822;51.000;5.874;2023-04-15T09:43:52;18.63;;;17.73;;
11531;SDS011;5822;51.000;5.874;2023-04-15T09:46:18;18.88;;;17.88;;
11531;SDS011;5822;51.000;5.874;2023-04-15T09:48:44;22.02;;;20.92;;
11531;SDS011;5822;51.000;5.874;2023-04-15T09:51:10;22.80;;;21.70;;
11531;SDS011;5822;51.000;5.874;2023-04-15T09:53:36;22.88;;;21.77;;
11531;SDS011;5822;51.000;5.874;2023-04-15T09:56:04;23.60;;;22.50;;
11531;SDS011;5822;51.000;5.874;2023-04-15T09:58:33;24.77;;;23.58;;
11531;SDS011;5822;51.000;5.874;2023-04-15T10:01:01;22.95;;;21.85;;
11531;SDS011;5822;51.000;5.874;2023-04-15T10:03:29;23.00;;;21.90;;
11531;SDS011;5822;51.000;5.874;2023-04-15T10:05:59;24.73;;;23.52;;
11531;SDS011;5822;51.000;5.874;2023-04-15T10:08:29;24.07;;;22.87;;
11531;SDS011;5822;51.000;5.874;2023-04-15T10:10:56;22.90;;;21.80;;
11531;SDS011;5822;51.000;5.874;2023-04-15T10:13:24;22.80;;;21.67;;
11531;SDS011;5822;51.000;5.874;2023-04-15T10:15:56;26.63;;;25.33;;
11531;SDS011;5822;51.000;5.874;2023-04-15T10:18:24;25.83;;;24.52;;
11531;SDS011;5822;51.000;5.874;2023-04-15T10:20:51;24.42;;;23.23;;
11531;SDS011;5822;51.000;5.874;2023-04-15T10:23:17;23.42;;;22.23;;
11531;SDS011;5822;51.000;5.874;2023-04-15T10:25:51;22.77;;;21.67;;
11531;SDS011;5822;51.000;5.874;2023-04-15T10:28:18;22.23;;;21.13;;
11531;SDS011;5822;51.000;5.874;2023-04-15T10:30:45;24.00;;;22.80;;
11531;SDS011;5822;51.000;5.874;2023-04-15T10:33:12;22.73;;;21.63;;
11531;SDS011;5822;51.000;5.874;2023-04-15T10:35:41;19.20;;;18.20;;
11531;SDS011;5822;51.000;5.874;2023-04-15T10:43:51;25.35;;;24.15;;
11531;SDS011;5822;51.000;5.874;2023-04-15T10:46:22;23.58;;;22.38;;
11531;SDS011;5822;51.000;5.874;2023-04-15T10:49:07;23.33;;;22.13;;
11531;SDS011;5822;51.000;5.874;2023-04-15T10:51:41;19.67;;;18.67;;
11531;SDS011;5822;51.000;5.874;2023-04-15T10:54:15;18.80;;;17.80;;
11531;SDS011;5822;51.000;5.874;2023-04-15T10:59:38;17.55;;;16.65;;
11531;SDS011;5822;51.000;5.874;2023-04-15T11:02:32;17.55;;;16.65;;
11531;SDS011;5822;51.000;5.874;2023-04-15T11:05:16;18.05;;;17.15;;
11531;SDS011;5822;51.000;5.874;2023-04-15T11:12:42;18.23;;;17.33;;
11531;SDS011;5822;51.000;5.874;2023-04-15T11:17:54;18.50;;;17.60;;
11531;SDS011;5822;51.000;5.874;2023-04-15T11:20:24;18.80;;;17.80;;
11531;SDS011;5822;51.000;5.874;2023-04-15T11:22:51;17.98;;;17.08;;
11531;SDS011;5822;51.000;5.874;2023-04-15T11:25:27;17.98;;;17.08;;
11531;SDS011;5822;51.000;5.874;2023-04-15T11:27:55;18.08;;;17.17;;
11531;SDS011;5822;51.000;5.874;2023-04-15T11:30:22;18.48;;;17.48;;
11531;SDS011;5822;51.000;5.874;2023-04-15T11:32:54;21.73;;;20.67;;
11531;SDS011;5822;51.000;5.874;2023-04-15T11:35:23;18.23;;;17.30;;
11531;SDS011;5822;51.000;5.874;2023-04-15T11:37:49;18.08;;;17.15;;
11531;SDS011;5822;51.000;5.874;2023-04-15T11:40:16;18.73;;;17.83;;
11531;SDS011;5822;51.000;5.874;2023-04-15T11:42:46;18.65;;;17.73;;
11531;SDS011;5822;51.000;5.874;2023-04-15T11:45:27;18.60;;;17.70;;
11531;SDS011;5822;51.000;5.874;2023-04-15T11:47:53;17.80;;;16.80;;
11531;SDS011;5822;51.000;5.874;2023-04-15T11:50:22;17.52;;;16.63;;
11531;SDS011;5822;51.000;5.874;2023-04-15T11:52:58;17.40;;;16.50;;
11531;SDS011;5822;51.000;5.874;2023-04-15T11:55:25;19.27;;;18.27;;
11531;SDS011;5822;51.000;5.874;2023-04-15T12:00:59;18.97;;;17.97;;
11531;SDS011;5822;51.000;5.874;2023-04-15T12:03:26;17.92;;;16.98;;
11531;SDS011;5822;51.000;5.874;2023-04-15T12:08:57;17.42;;;16.52;;
11531;SDS011;5822;51.000;5.874;2023-04-15T12:16:45;17.15;;;16.25;;
11531;SDS011;5822;51.000;5.874;2023-04-15T12:19:16;17.40;;;16.50;;
11531;SDS011;5822;51.000;5.874;2023-04-15T12:21:47;17.10;;;16.20;;
11531;SDS011;5822;51.000;5.874;2023-04-15T12:24:13;19.02;;;18.02;;
11531;SDS011;5822;51.000;5.874;2023-04-15T12:26:43;19.13;;;18.13;;
11531;SDS011;5822;51.000;5.874;2023-04-15T12:29:11;17.50;;;16.60;;
11531;SDS011;5822;51.000;5.874;2023-04-15T12:31:47;17.60;;;16.70;;
11531;SDS011;5822;51.000;5.874;2023-04-15T12:34:31;18.02;;;17.02;;
11531;SDS011;5822;51.000;5.874;2023-04-15T12:37:01;17.87;;;16.87;;
11531;SDS011;5822;51.000;5.874;2023-04-15T12:39:33;17.45;;;16.55;;
11531;SDS011;5822;51.000;5.874;2023-04-15T12:42:00;17.45;;;16.55;;
11531;SDS011;5822;51.000;5.874;2023-04-15T12:44:26;17.90;;;16.90;;
11531;SDS011;5822;51.000;5.874;2023-04-15T12:46:52;17.75;;;16.85;;
11531;SDS011;5822;51.000;5.874;2023-04-15T12:49:21;17.60;;;16.70;;
11531;SDS011;5822;51.000;5.874;2023-04-15T12:51:49;18.13;;;17.13;;
11531;SDS011;5822;51.000;5.874;2023-04-15T12:54:16;19.20;;;18.20;;
11531;SDS011;5822;51.000;5.874;2023-04-15T12:56:42;18.08;;;17.08;;
11531;SDS011;5822;51.000;5.874;2023-04-15T12:59:08;18.13;;;17.13;;
11531;SDS011;5822;51.000;5.874;2023-04-15T13:01:34;18.30;;;17.30;;
11531;SDS011;5822;51.000;5.874;2023-04-15T13:04:00;17.73;;;16.83;;
11531;SDS011;5822;51.000;5.874;2023-04-15T13:06:26;17.90;;;16.90;;
11531;SDS011;5822;51.000;5.874;2023-04-15T13:08:53;17.70;;;16.80;;
11531;SDS011;5822;51.000;5.874;2023-04-15T13:11:19;17.40;;;16.50;;
11531;SDS011;5822;51.000;5.874;2023-04-15T13:13:46;18.37;;;17.37;;
11531;SDS011;5822;51.000;5.874;2023-04-15T13:16:12;17.53;;;16.63;;
11531;SDS011;5822;51.000;5.874;2023-04-15T13:18:38;18.60;;;17.60;;
11531;SDS011;5822;51.000;5.874;2023-04-15T13:21:03;19.63;;;18.53;;
11531;SDS011;5822;51.000;5.874;2023-04-15T13:23:31;18.80;;;17.70;;
11531;SDS011;5822;51.000;5.874;2023-04-15T13:25:57;18.63;;;17.63;;
11531;SDS011;5822;51.000;5.874;2023-04-15T13:28:23;18.53;;;17.53;;
11531;SDS011;5822;51.000;5.874;2023-04-15T13:30:49;18.90;;;17.80;;
11531;SDS011;5822;51.000;5.874;2023-04-15T13:33:15;18.50;;;17.50;;
11531;SDS011;5822;51.000;5.874;2023-04-15T13:35:42;18.60;;;17.60;;
11531;SDS011;5822;51.000;5.874;2023-04-15T13:38:07;18.23;;;17.33;;
11531;SDS011;5822;51.000;5.874;2023-04-15T13:40:33;17.77;;;16.87;;
11531;SDS011;5822;51.000;5.874;2023-04-15T13:42:59;18.17;;;17.17;;
11531;SDS011;5822;51.000;5.874;2023-04-15T13:45:26;18.10;;;17.10;;
11531;SDS011;5822;51.000;5.874;2023-04-15T13:47:51;17.77;;;16.77;;
11531;SDS011;5822;51.000;5.874;2023-04-15T13:50:17;17.95;;;16.95;;
11531;SDS011;5822;51.000;5.874;2023-04-15T13:52:43;17.60;;;16.67;;
11531;SDS011;5822;51.000;5.874;2023-04-15T13:55:09;17.50;;;16.60;;
11531;SDS011;5822;51.000;5.874;2023-04-15T13:57:34;16.90;;;16.00;;
11531;SDS011;5822;51.000;5.874;2023-04-15T14:00:01;17.30;;;16.40;;
11531;SDS011;5822;51.000;5.874;2023-04-15T14:02:28;17.80;;;16.80;;
11531;SDS011;5822;51.000;5.874;2023-04-15T14:04:54;18.42;;;17.42;;
11531;SDS011;5822;51.000;5.874;2023-04-15T14:07:20;17.90;;;17.00;;
11531;SDS011;5822;51.000;5.874;2023-04-15T14:09:45;17.80;;;16.90;;
11531;SDS011;5822;51.000;5.874;2023-04-15T14:12:12;18.30;;;17.30;;
11531;SDS011;5822;51.000;5.874;2023-04-15T14:14:38;17.90;;;16.98;;
11531;SDS011;5822;51.000;5.874;2023-04-15T14:17:04;18.30;;;17.30;;
11531;SDS011;5822;51.000;5.874;2023-04-15T14:19:30;17.70;;;16.80;;
11531;SDS011;5822;51.000;5.874;2023-04-15T14:21:56;18.42;;;17.40;;
11531;SDS011;5822;51.000;5.874;2023-04-15T14:24:23;18.10;;;17.10;;
11531;SDS011;5822;51.000;5.874;2023-04-15T14:26:48;17.83;;;16.93;;
11531;SDS011;5822;51.000;5.874;2023-04-15T14:29:14;18.27;;;17.27;;
11531;SDS011;5822;51.000;5.874;2023-04-15T14:31:40;18.60;;;17.60;;
11531;SDS011;5822;51.000;5.874;2023-04-15T14:34:08;18.42;;;17.42;;
11531;SDS011;5822;51.000;5.874;2023-04-15T14:36:34;17.58;;;16.67;;
11531;SDS011;5822;51.000;5.874;2023-04-15T14:39:00;17.90;;;17.00;;
11531;SDS011;5822;51.000;5.874;2023-04-15T14:41:26;18.30;;;17.30;;
11531;SDS011;5822;51.000;5.874;2023-04-15T14:43:51;17.90;;;16.90;;
11531;SDS011;5822;51.000;5.874;2023-04-15T14:46:17;17.40;;;16.50;;
11531;SDS011;5822;51.000;5.874;2023-04-15T14:48:43;18.17;;;17.17;;
11531;SDS011;5822;51.000;5.874;2023-04-15T14:51:08;21.40;;;20.30;;
11531;SDS011;5822;51.000;5.874;2023-04-15T14:53:34;21.20;;;20.10;;
11531;SDS011;5822;51.000;5.874;2023-04-15T14:56:00;21.07;;;20.00;;
11531;SDS011;5822;51.000;5.874;2023-04-15T14:58:26;20.30;;;19.30;;